Flight Track Log - Related Links

Times and Time Zones

All times are in EDT time to prevent confusion due to time zone crossing. See the RPA3392 flight status page for this flight to view local times or setup timezone preferences in your user account.

Time Position Orientation Groundspeed Altitude Reporting Facility
EDT Latitude Longitude Course Direction KTS MPH feet Rate Location/Type
Thu 10:09:48 PM 38.8833 -77.0500 57° Northeast 155 178 1,500  Level Potomac TRACON
Thu 10:11:00 PM 38.9616 -76.6987 67° East  Level FlightAware Approximate
Thu 10:11:39 PM 38.9533 -77.1425 314° West 216 249 5,800  Level Washington Center
Thu 10:12:00 PM 39.0061 -76.5878 57° Northeast  Level FlightAware Approximate
Thu 10:12:40 PM 39.0103 -77.0928 34° Northeast 204 235 9,000  Level Washington Center
Thu 10:13:00 PM 39.0497 -76.4759 63° Northeast  Level FlightAware Approximate
Thu 10:13:40 PM 39.0264 -76.9783 80° East 199 229 11,900  Level Washington Center
Thu 10:14:00 PM 39.0958 -76.3654 61° Northeast  Level FlightAware Approximate
Thu 10:14:38 PM 39.0442 -76.8583 79° East 287 330 14,600  Level Washington Center
Thu 10:15:00 PM 39.1250 -76.2500 57° Northeast  Level FlightAware Approximate
Thu 10:15:39 PM 39.0664 -76.7278 78° East 326 375 16,400  Level Washington Center
Thu 10:16:39 PM 39.0886 -76.5864 79° East 367 422 18,700 2,231 Climbing Washington Center
Thu 10:17:40 PM 39.1147 -76.4422 77° East 396 456 20,900 2,118 Climbing Washington Center
Thu 10:18:38 PM 39.1094 -76.2897 93° East 413 475 22,900 1,059 Climbing Washington Center
Thu 10:19:39 PM 39.1019 -76.1186 93° East 428 493 23,000 344 Climbing Washington Center
Thu 10:20:40 PM 39.1567 -75.9717 64° Northeast 428 493 23,600 942 Climbing Washington Center
Thu 10:21:40 PM 39.2278 -75.8328 57° Northeast 440 506 24,900 1,271 Climbing Washington Center
Thu 10:22:38 PM 39.3197 -75.7150 45° Northeast 455 524 26,100 1,119 Climbing Washington Center
Thu 10:23:38 PM 39.4156 -75.5917 45° Northeast 460 529 27,100 992 Climbing Washington Center
Thu 10:24:39 PM 39.5114 -75.4678 45° Northeast 472 543 28,100 885 Climbing Washington Center
Thu 10:25:40 PM 39.6092 -75.3411 45° Northeast 482 555 28,900 295 Climbing Washington Center
Thu 10:27:42 PM 39.7908 -75.0828 47° Northeast 484 557 29,000 33 Climbing New York Center
Thu 10:28:42 PM 39.8853 -74.9506 47° Northeast 491 565 29,000  Level New York Center
Thu 10:29:43 PM 39.9944 -74.8053 46° Northeast 498 573 29,000  Level New York Center
Thu 10:30:43 PM 40.0886 -74.6725 47° Northeast 503 579 29,000  Level New York Center
Thu 10:31:42 PM 40.1808 -74.5336 49° Northeast 503 579 29,000  Level New York Center
Thu 10:32:43 PM 40.2847 -74.4086 43° Northeast 503 579 29,000  Level New York Center
Thu 10:33:42 PM 40.4000 -74.3194 30° Northeast 488 562 29,000  Level New York Center
Thu 10:36:08 PM 40.7039 -74.2525 North 456 525 29,000  Level Boston Center
Thu 10:37:08 PM 40.8378 -74.2286 North 469 540 29,000  Level Boston Center
Thu 10:38:08 PM 40.9675 -74.1994 10° North 469 540 29,000  Level Boston Center
Thu 10:39:08 PM 41.0950 -74.1725 North 469 540 29,000  Level Boston Center
Thu 10:40:08 PM 41.2247 -74.1428 10° North 464 534 29,000 -750 Level Boston Center
Thu 10:41:08 PM 41.3628 -74.1106 10° North 464 534 27,500 -1,900 Descending Boston Center
Thu 10:42:08 PM 41.4881 -74.0833 North 459 528 25,200 -2,250 Descending Boston Center
Thu 10:43:08 PM 41.5969 -74.0611 North 459 528 23,000 -2,150 Descending Boston Center
Thu 10:44:08 PM 41.7139 -74.0336 10° North 436 502 20,900 -1,950 Descending Boston Center
Thu 10:45:08 PM 41.8308 -74.0114 North 420 483 19,100 -1,899 Descending Boston Center
Thu 10:45:27 PM 41.8644 -74.0039 North 407 468 18,400 -2,108 Descending Boston Center
Thu 10:46:22 PM 41.9606 -73.9811 10° North 389 448 16,500 -2,079 Descending Boston Center
Thu 10:47:08 PM 42.0422 -73.9608 10° North 381 438 14,900 -1,925 Descending Boston Center
Thu 10:48:08 PM 42.1361 -73.9381 10° North 376 433 13,100 -1,920 Descending Boston Center
Thu 10:48:23 PM 42.1697 -73.9331 North 376 433 12,500 -2,100 Descending Boston Center
Thu 10:49:08 PM 42.2450 -73.9097 13° North 366 421 11,000 -1,967 Descending Boston Center
Thu 10:49:24 PM 42.2764 -73.9047 North 360 414 10,500 -1,000 Descending Boston Center
Thu 10:50:08 PM 42.3308 -73.8892 12° North 352 405 10,000 -800 Descending Boston Center
Thu 10:50:24 PM 42.3642 -73.8817 North 311 358 9,700 -1,300 Descending Boston Center
Thu 10:51:08 PM 42.4164 -73.8658 13° North 303 349 8,700 -1,672 Descending Boston Center
Thu 10:51:25 PM 42.4394 -73.8636 North 266 306 8,000 -1,900 Descending Boston Center
Thu 10:52:08 PM 42.4856 -73.8478 14° North 277 319 6,800 -1,701 Descending Boston Center
Thu 10:52:32 PM 42.5211 -73.8403 North 274 315 6,100 -1,600 Descending Boston Center
Thu 10:53:08 PM 42.5650 -73.8242 15° North 277 319 5,200 -1,400 Descending Boston Center
Thu 10:53:32 PM 42.5942 -73.8192 North 257 296 4,700 -1,250 Descending Boston Center

Login

Don't have an account? Register now (free) for customized features, flight alerts, and more!